Air Resources Laboratory banner image
Air Resources Laboratory web site National Oceanic and Atmospheric Administration (NOAA)

tx metar


KACT 212251Z 03006KT 10SM CLR 20/06 A3022 RMK AO2 SLP229 T02000056=
KADS 212251Z 00000KT 10SM SKC 19/04 A3024=
KBAZ 212251Z 07005KT 10SM CLR 20/09 A3018 RMK AO2 SLP216 T02000089 $=
KBGD 212251Z AUTO 20013G21KT 10SM CLR 21/02 A3014 RMK AO2 SLP188 T02110022=
KCNW 212255Z 01003KT 10SM SKC 20/04 A3022=
KCRP 212251Z 05013KT 10SM SCT025 BKN048 OVC055 21/13 A3013 RMK AO2 SLP201
 T02110133 $=
KELP 212251Z 15009KT 10SM SCT041 BKN180 21/09 A3016 RMK AO2 SLP165 T02060089=
KHDO 212251Z AUTO 10005KT 10SM CLR 22/10 A3020 RMK AO2 SLP215 T02170100=
KSAT 212251Z 07007KT 10SM BKN160 BKN250 20/08 A3020 RMK AO2 SLP212 T02000083=
KSJT 212251Z 05003KT 10SM OVC100 18/08 A3024 RMK AO2 SLP233 T01830083=
KTPL 212251Z AUTO 03005KT 10SM CLR 19/07 A3022 RMK AO2 SLP248 T01940072=
KVCT 212251Z 03007KT 10SM CLR 21/11 A3016 RMK AO2 SLP213 T02110106=